Les Mechins, Canada
Current Conditions -  °F | °C
As of 6:00 AM on Thursday 23 Oct 2014 (Local Time) from CYBC Reporting Station
Clear Clear  
Wind Chill: 29°   Ceiling: Unl
Heat Index: 34°   Visibility: 9mi
Dew Point: 28°   Wind: 6mph
Humidity: 81%   Direction: 360°N
Pressure: 30.37"   Gusts: NA
Location:  48.98°N, 66.98°W
Report Text: CYBC 231000Z AUTO 36005KT 9SM CLR 01/M02 A3037 RMK SLP284
Loading
Personal Weather Stations






























Interactive Weather Map
Tropical Storm Tracking
New forecast layout! Learn more

10-Day Weather Forecast

Advertisements
Track Severe Weather on mobile